Airfield :
LOGIN :

Register | Disclaimer

   EN    FR    IT 

 










Legend :    VFR   Marginal VFR   IFR   Intensive IFR   Very Intensive IFR
Visi :
Ceiling :
>= 8 km
>= 3000ft
5 to 8 km
1000 to 3000 ft
1500m to 5 km
500 to 1000 ft
800 to 1500m
200 to 500 ft
< 800m
< 200 ft
Symbols :   Thunderstorms  Fog  Heavy snow  Heavy precipitations  Wind > 20 kt
SIGMETs :     Misc.  Thunderstorms  Icing  Turbulence  Mountain Waves  Volcanic Ashes






- Airport Elevation : 39 ft


ETNH - Hohn AB

CURRENT METAR :
  • 090120Z 22012G23KT 9999 FEW020CB 07/03 Q0990 BLU+

EXPIRED METARs :
  • 090048Z 22014KT 9999 FEW020 07/04 Q0989 BLU+
  • 090020Z 22011G24KT 9999 BKN020 07/03 Q0990 WHT
  • 082320Z 21010KT 9999 FEW028 07/03 Q0990 BLU+

TAF TAF ETNH
Valid from the 09 at 00:00 until the 09 at 12:00 UTC


082300Z 0900/0912 23015G25KT 8000 NSW SCT030
TEMPO 0900/0912 25020G30KT 4000 -SHRA BKN012TCU
PROB30 0900/0912 22020G35KT 3000 SHRA BKN010CB BY ETGL



MET'MAP, your aeronautical weather chart ! - Copyright ORBIFLY December 2007 - Disclaimer

ORBIFLY MET'MAP TEAM :

Programming & Development : Alexandra Zaïnal
Concept & original design : Baudouin d'Aumeries
Assistance for programming : Marc-Olivier Méhu
Technical & hardware support : Manuel Goepfert

Contact : metmap@orbifly.com




SOURCES & CREDITS :

   NOAA